Comodoro D.R. Salomon Airport


Codes: SAMM/LGS
Name: Comodoro D.R. Salomon Airport
City: Malargue
Country: Argentina
Elevation: 4685 ft.

Photos at Comodoro D.R. Salomon Airport


   Photos courtesy of SpottingLog. You can add your own sightings and photos by signing up for a free trial today.



No photos found.

Weather at Comodoro D.R. Salomon Airport


Time (UTC)DescriptionTempratureWindCloud coverageVisibilityPressureHumidity
23-May-2024 21:00Light Rain4°C9 mph, E94%10000m1025hPa81%
24-May-2024 00:00Light Snow3°C7 mph, SE96%5125m1026hPa82%
24-May-2024 03:00Light Snow2°C2 mph, N98%0m1028hPa90%
24-May-2024 06:00Light Snow1°C4 mph, N100%0m1029hPa97%
24-May-2024 09:00Light Snow1°C2 mph, NE99%10000m1027hPa89%
24-May-2024 12:00Overcast Clouds1°C4 mph, NE99%10000m1027hPa82%
24-May-2024 15:00Overcast Clouds2°C7 mph, NE100%10000m1028hPa80%
24-May-2024 18:00Overcast Clouds3°C4 mph, NE100%10000m1025hPa66%
24-May-2024 21:00Overcast Clouds4°C9 mph, NE100%10000m1023hPa68%
25-May-2024 00:00Overcast Clouds2°C9 mph, NE100%7069m1027hPa88%
25-May-2024 03:00Light Snow1°C9 mph, N100%0m1027hPa92%
25-May-2024 06:00Light Snow1°C9 mph, N100%0m1027hPa95%
25-May-2024 09:00Light Snow1°C9 mph, N100%0m1026hPa97%
25-May-2024 12:00Light Snow0°C9 mph, NE100%137m1027hPa97%
25-May-2024 15:00Light Snow1°C9 mph, N100%0m1027hPa96%
25-May-2024 18:00Light Snow2°C9 mph, N100%0m1024hPa87%
25-May-2024 21:00Light Snow2°C9 mph, N100%0m1024hPa93%
26-May-2024 00:00Light Snow1°C9 mph, NE100%339m1025hPa99%
26-May-2024 03:00Light Snow2°C7 mph, NE100%358m1024hPa100%
26-May-2024 06:00Light Snow2°C7 mph, NE100%213m1023hPa100%
26-May-2024 09:00Light Snow1°C2 mph, NE100%430m1023hPa99%
26-May-2024 12:00Light Snow1°C2 mph, S100%4719m1024hPa93%
26-May-2024 15:00Overcast Clouds2°C2 mph, S99%10000m1025hPa86%
26-May-2024 18:00Overcast Clouds3°C4 mph, SE97%10000m1023hPa79%
26-May-2024 21:00Broken Clouds4°C2 mph, E76%10000m1023hPa75%
27-May-2024 00:00Broken Clouds1°C2 mph, NW62%10000m1026hPa80%
27-May-2024 03:00Few Clouds-1°C4 mph, W22%10000m1027hPa75%
27-May-2024 06:00Few Clouds-1°C4 mph, SW15%10000m1027hPa65%
27-May-2024 09:00Clear Sky-1°C4 mph, SW5%10000m1027hPa59%
27-May-2024 12:00Scattered Clouds-1°C4 mph, SW27%10000m1028hPa57%
27-May-2024 15:00Broken Clouds4°C2 mph, NE72%10000m1025hPa60%
27-May-2024 18:00Broken Clouds6°C2 mph, SE78%10000m1022hPa55%
27-May-2024 21:00Scattered Clouds5°C0 mph, SW42%10000m1021hPa58%
28-May-2024 00:00Broken Clouds3°C4 mph, SW67%10000m1023hPa52%
28-May-2024 03:00Scattered Clouds3°C7 mph, SW40%10000m1023hPa45%
28-May-2024 06:00Scattered Clouds3°C4 mph, SW50%10000m1022hPa43%
28-May-2024 09:00Broken Clouds2°C4 mph, SW73%10000m1020hPa43%
28-May-2024 12:00Overcast Clouds3°C4 mph, SW87%10000m1020hPa42%
28-May-2024 15:00Broken Clouds9°C0 mph, S84%10000m1018hPa41%
28-May-2024 18:00Broken Clouds11°C2 mph, SE75%10000m1015hPa38%